Hardin, Arkansas
Current Conditions -  °F | °C
As of 4:53 PM on Friday 31 Oct 2014 (Local Time) from KPBF Reporting Station
Clear Clear  
Wind Chill: 61°   Ceiling: Unl
Heat Index: 61°   Visibility: 10mi
Dew Point: 35°   Wind: 15mph
Humidity: 38%   Direction: 340°NNW
Pressure: 30.21"   Gusts: 24mph
Location:  34.193°N, 91.9403°W
Report Text: KPBF 312153Z AUTO 34013G21KT 10SM CLR 16/02 A3021 RMK AO2 SLP229 T01610017
Loading
Personal Weather Stations






























Interactive Weather Map
Tropical Storm Tracking
New forecast layout! Learn more

10-Day Weather Forecast

Advertisements
Track Severe Weather on mobile